Beersel, Belgium
Current Conditions -  °F | °C
As of 8:20 PM on Sunday 21 Dec 2014 (Local Time) from EBBR Reporting Station
Broken Clouds Broken Clouds  
Wind Chill: 39°   Ceiling: 1600
Heat Index: 46°   Visibility: 6mi
Dew Point: 41°   Wind: 21mph
Humidity: 81%   Direction: 230°SW
Pressure: 30.3"   Gusts: NA
Location:  50.77°N, 4.3°E
Report Text: EBBR 211920Z 23018KT 9999 SCT012 BKN016 08/05 Q1026 TEMPO 23020G30KT BKN012
Loading
Personal Weather Stations






























Interactive Weather Map New forecast layout! Learn more

10-Day Weather Forecast

Advertisements
Track Severe Weather on mobile